createdAt,value
2023-01-21T00:02:14.480Z,98.75
2023-01-21T00:07:09.411Z,98.18
2023-01-21T00:12:04.368Z,98.23
2023-01-21T00:16:57.879Z,98.01
2023-01-21T00:21:49.820Z,98.07
2023-01-21T00:26:41.501Z,98.21
2023-01-21T00:31:33.419Z,99.10
2023-01-21T00:41:37.159Z,98.02
2023-01-21T00:51:34.602Z,99.26
2023-01-21T00:56:26.333Z,99.45
2023-01-21T01:01:21.253Z,99.42
2023-01-21T01:06:20.510Z,99.77
2023-01-21T01:11:14.394Z,100.00
2023-01-21T01:21:16.244Z,100.00
2023-01-21T01:31:35.461Z,100.00
2023-01-21T01:36:27.168Z,100.00
2023-01-21T01:41:27.290Z,100.00
2023-01-21T01:46:20.304Z,100.00
2023-01-21T01:56:23.489Z,100.00
2023-01-21T02:01:15.522Z,100.00
2023-01-21T02:06:07.699Z,100.00
2023-01-21T02:11:00.834Z,100.00
2023-01-21T02:16:34.881Z,100.00
2023-01-21T02:21:57.970Z,100.00
2023-01-21T02:27:12.274Z,100.00
2023-01-21T02:32:34.412Z,100.00
2023-01-21T02:37:36.534Z,100.00
2023-01-21T02:43:28.316Z,100.00
2023-01-21T02:48:45.343Z,100.00
2023-01-21T02:53:37.014Z,100.00
2023-01-21T02:58:35.589Z,100.00
2023-01-21T03:03:55.999Z,100.00
2023-01-21T03:08:58.750Z,100.00
2023-01-21T03:14:39.508Z,100.00
2023-01-21T03:19:42.137Z,100.00
2023-01-21T03:24:37.058Z,100.00
2023-01-21T03:29:31.855Z,100.00
2023-01-21T03:34:30.056Z,100.00
2023-01-21T03:39:33.692Z,100.00
2023-01-21T03:44:26.501Z,100.00
2023-01-21T03:49:34.483Z,100.00
2023-01-21T03:54:26.275Z,100.00
2023-01-21T03:59:17.962Z,100.00
2023-01-21T04:04:10.342Z,100.00
2023-01-21T04:09:03.642Z,100.00
2023-01-21T04:13:55.304Z,100.00
2023-01-21T04:18:47.666Z,100.00
2023-01-21T04:23:39.482Z,100.00
2023-01-21T04:28:31.193Z,100.00
2023-01-21T04:33:23.025Z,100.00
2023-01-21T04:38:15.748Z,100.00
2023-01-21T04:43:07.799Z,100.00
2023-01-21T04:47:59.556Z,100.00
2023-01-21T04:52:51.289Z,100.00
2023-01-21T04:57:43.019Z,100.00
2023-01-21T05:02:37.654Z,100.00
2023-01-21T05:27:56.335Z,100.00
2023-01-21T05:48:14.923Z,100.00
2023-01-21T05:53:07.682Z,100.00
2023-01-21T06:18:26.409Z,100.00
2023-01-21T06:23:22.459Z,100.00
2023-01-21T06:28:19.408Z,100.00
2023-01-21T06:48:32.129Z,100.00
2023-01-21T07:08:54.053Z,100.00
2023-01-21T07:18:53.434Z,100.00
2023-01-21T07:33:58.807Z,100.00
2023-01-21T07:54:07.991Z,100.00
2023-01-21T08:14:19.971Z,96.00
2023-01-21T08:24:34.128Z,95.83
2023-01-21T08:29:27.180Z,96.74
2023-01-21T08:34:20.143Z,95.77
2023-01-21T08:39:14.281Z,94.68
2023-01-21T08:44:08.000Z,90.79
2023-01-21T08:49:07.409Z,90.88
2023-01-21T08:54:00.831Z,91.01
2023-01-21T08:58:58.067Z,90.60
2023-01-21T09:03:55.695Z,90.59
2023-01-21T09:08:48.547Z,89.84
2023-01-21T09:13:41.261Z,89.81
2023-01-21T09:18:33.529Z,89.05
2023-01-21T09:23:33.276Z,87.53
2023-01-21T09:28:25.550Z,88.32
2023-01-21T09:33:17.948Z,87.46
2023-01-21T09:38:14.279Z,87.37
2023-01-21T09:59:26.850Z,85.64
2023-01-21T10:10:09.226Z,82.48
2023-01-21T10:21:16.277Z,82.11
2023-01-21T10:26:14.674Z,83.02
2023-01-21T10:31:28.086Z,83.49
2023-01-21T10:37:18.314Z,82.84
2023-01-21T10:42:35.773Z,83.25
2023-01-21T10:47:56.007Z,82.74
2023-01-21T10:53:36.741Z,81.83
2023-01-21T10:58:59.684Z,81.87
2023-01-21T11:04:05.027Z,83.65
2023-01-21T11:14:10.511Z,85.08
2023-01-21T11:19:11.345Z,87.84
2023-01-21T11:24:21.322Z,89.22
2023-01-21T11:29:24.190Z,90.23
2023-01-21T11:34:23.382Z,90.49
2023-01-21T11:44:24.331Z,92.35
2023-01-21T12:10:34.784Z,92.55
2023-01-21T12:21:53.663Z,91.81
2023-01-21T12:27:05.708Z,91.64
2023-01-21T12:32:12.039Z,91.03
2023-01-21T12:42:48.633Z,90.70
2023-01-21T12:48:14.088Z,90.68
2023-01-21T12:58:40.617Z,90.34
2023-01-21T13:04:24.808Z,88.86
2023-01-21T13:09:37.851Z,88.93
2023-01-21T13:27:02.569Z,86.94
2023-01-21T13:32:17.656Z,87.35
2023-01-21T13:37:44.543Z,86.46
2023-01-21T14:11:20.597Z,86.99
2023-01-21T14:28:25.436Z,88.31
2023-01-21T16:58:32.289Z,91.11
2023-01-21T17:08:31.365Z,91.75
2023-01-21T17:24:05.666Z,92.65
2023-01-21T17:29:18.536Z,91.95
2023-01-21T17:45:05.319Z,91.54
2023-01-21T19:03:01.097Z,89.09
2023-01-21T19:23:34.120Z,89.15
2023-01-21T20:14:39.455Z,91.63
2023-01-21T20:45:02.752Z,90.01
2023-01-21T20:49:58.278Z,90.92
2023-01-21T21:41:29.595Z,88.57
2023-01-21T22:17:58.508Z,92.10
2023-01-21T22:27:59.409Z,90.72
2023-01-21T22:32:54.834Z,90.64
